Terminal Aerodrome Forecast
Issued by NWS

Home | Current Version | Previous Version | Text Only | Print | Product List | Glossary On
Versions: 1 2 3 4 5 6 7 8 9 10 11 12 13 14 15 16
000
FTUS41 KBOX 241120
TAFBAF
TAF
KBAF 241120Z 2412/2512 19004KT P6SM FEW250
     FM241500 19009G19KT P6SM FEW250
     FM242200 19007KT P6SM FEW250
     FM250300 16004KT P6SM VCSH OVC090
     FM250700 09004KT P6SM -RA OVC025
     FM250900 06005KT P6SM -RA OVC015=

USA.gov is the U.S. government's official web portal to all federal, state and local government web resources and services.